»·PEaware :: UAL465 KLAS-KJAC

UAL465 :: KLAS-KJAC

FLIGHT INFORMATION

Flight Status: Arrived
Operator:
United Airlines
More flights by this operator :: More flights under this callsign
Pilot: Matt G. (13672)
Aircraft: BOEING 727-100
(B721)
More flights by this aircraft type
Origin: KLAS McCarran Intl
United States
Destination: KJAC Jackson Hole
United States
More flights between these airports :: More routes between these airports
Route: +TRALR9 MLF FFU BPI DNW
File this flight plan on PilotEdge
Remarks: Will request ILS 19 Z
Altitude:
(Current/Filed)
29,000ft
Speed:
(Current/Filed)
493kts
Departed: 10-Aug-18 07:38 AM
Arrived: 10-Aug-18 09:13 AM
Distance/Time
Traveled:
495nm/1:35
Distance/Time
To Go:
Arrived

Flight Plot

Page will automatically refresh every two minutes.

Flight plan parsing failed; only flown route is shown


Map Options




Map Legend


Flown Route
Filed Route
Departure Airport
Arrival Airport
Navaid (VOR, NDB)
Fix

Horizontal Profiles

Position Reports

Time Latitude Longitude Heading Altitude Ground
Speed
10-Aug-18 06:41 36.082181 -115.140042 47 2123ft 0kts
10-Aug-18 06:44 36.082181 -115.140042 47 2123ft 0kts
10-Aug-18 06:45 36.082181 -115.140042 47 2123ft 0kts
10-Aug-18 06:46 36.082181 -115.140042 47 2123ft 0kts
10-Aug-18 06:47 36.082181 -115.140042 47 2123ft 0kts
10-Aug-18 06:48 36.082181 -115.140042 47 2123ft 0kts
10-Aug-18 06:49 36.082181 -115.140042 47 2123ft 0kts
10-Aug-18 06:50 36.082181 -115.140042 47 2123ft 0kts
10-Aug-18 06:51 36.082181 -115.140042 47 2123ft 0kts
10-Aug-18 06:52 36.082181 -115.140042 47 2123ft 0kts
10-Aug-18 06:53 36.082181 -115.140042 47 2123ft 0kts
10-Aug-18 06:54 36.082181 -115.140042 47 2123ft 0kts
10-Aug-18 06:55 36.082181 -115.140042 47 2123ft 0kts
10-Aug-18 06:56 36.082181 -115.140042 47 2123ft 0kts
10-Aug-18 06:57 36.082181 -115.140042 47 2123ft 0kts
10-Aug-18 06:58 36.082181 -115.140042 47 2123ft 0kts
10-Aug-18 06:59 36.082181 -115.140042 47 2123ft 0kts
10-Aug-18 07:00 36.082181 -115.140042 47 2123ft 0kts
10-Aug-18 07:01 36.082181 -115.140042 47 2123ft 0kts
10-Aug-18 07:02 36.082181 -115.140042 47 2123ft 0kts
10-Aug-18 07:03 36.082181 -115.140042 47 2123ft 0kts
10-Aug-18 07:04 36.082181 -115.140042 47 2123ft 0kts
10-Aug-18 07:05 36.082181 -115.140042 47 2123ft 0kts
10-Aug-18 07:06 36.082181 -115.140042 47 2123ft 0kts
10-Aug-18 07:07 36.082181 -115.140042 47 2123ft 0kts
10-Aug-18 07:08 36.082181 -115.140042 47 2123ft 0kts
10-Aug-18 07:09 36.082181 -115.140042 47 2123ft 0kts
10-Aug-18 07:10 36.082181 -115.140042 47 2123ft 0kts
10-Aug-18 07:11 36.082181 -115.140042 47 2123ft 0kts
10-Aug-18 07:12 36.082181 -115.140042 47 2123ft 0kts
10-Aug-18 07:13 36.082181 -115.140042 47 2123ft 0kts
10-Aug-18 07:14 36.082181 -115.140042 47 2123ft 0kts
10-Aug-18 07:15 36.082181 -115.140042 47 2123ft 0kts
10-Aug-18 07:16 36.082181 -115.140042 47 2123ft 0kts
10-Aug-18 07:17 36.082181 -115.140042 47 2123ft 0kts
10-Aug-18 07:18 36.082181 -115.140042 47 2123ft 0kts
10-Aug-18 07:19 36.082181 -115.140042 47 2123ft 0kts
10-Aug-18 07:20 36.082181 -115.140042 47 2123ft 0kts
10-Aug-18 07:21 36.082181 -115.140042 47 2123ft 0kts
10-Aug-18 07:22 36.082181 -115.140042 47 2123ft 0kts
10-Aug-18 07:23 36.082181 -115.140042 47 2123ft 0kts
10-Aug-18 07:24 36.082181 -115.140042 47 2123ft 0kts
10-Aug-18 07:25 36.082181 -115.140042 47 2123ft 0kts
10-Aug-18 07:26 36.082181 -115.140042 47 2123ft 0kts
10-Aug-18 07:27 36.082139 -115.140099 44 2123ft 2kts
10-Aug-18 07:28 36.081702 -115.140608 62 2123ft 2kts
10-Aug-18 07:29 36.081727 -115.141307 126 2123ft 2kts
10-Aug-18 07:30 36.082167 -115.141588 181 2123ft 0kts
10-Aug-18 07:31 36.082166 -115.141588 181 2123ft 0kts
10-Aug-18 07:32 36.082166 -115.141588 181 2123ft 0kts
10-Aug-18 07:33 36.082166 -115.141588 181 2123ft 0kts
10-Aug-18 07:34 36.081192 -115.141600 179 2123ft 19kts
10-Aug-18 07:35 36.078249 -115.137275 88 2123ft 20kts
10-Aug-18 07:36 36.078247 -115.128713 90 2123ft 33kts
10-Aug-18 07:37 36.077501 -115.121639 132 2123ft 0kts
10-Aug-18 07:38 36.077501 -115.121639 132 2123ft 0kts
10-Aug-18 07:39 36.076387 -115.125075 269 2123ft 67kts
10-Aug-18 07:40 36.076411 -115.177583 268 3668ft 183kts
10-Aug-18 07:41 36.065892 -115.242758 223 6293ft 231kts
10-Aug-18 07:42 36.001109 -115.280422 201 7021ft 282kts
10-Aug-18 07:43 35.924127 -115.277324 162 8412ft 292kts
10-Aug-18 07:44 35.863006 -115.223223 100 11754ft 300kts
10-Aug-18 07:45 35.857211 -115.120041 91 14544ft 315kts
10-Aug-18 07:46 35.883477 -115.018196 60 16993ft 327kts
10-Aug-18 07:47 35.929094 -114.919335 59 19248ft 341kts
10-Aug-18 07:48 35.974815 -114.807072 62 19033ft 389kts
10-Aug-18 07:49 36.021641 -114.685450 63 19023ft 414kts
10-Aug-18 07:50 36.071561 -114.553299 64 19010ft 442kts
10-Aug-18 07:51 36.123923 -114.413765 64 21030ft 455kts
10-Aug-18 07:52 36.176684 -114.272534 64 22749ft 468kts
10-Aug-18 07:53 36.232717 -114.130043 63 24317ft 478kts
10-Aug-18 07:54 36.291562 -113.981578 63 25733ft 487kts
10-Aug-18 07:55 36.351284 -113.831004 62 26961ft 495kts
10-Aug-18 07:56 36.413007 -113.676976 55 28020ft 502kts
10-Aug-18 07:57 36.528647 -113.584951 18 28904ft 505kts
10-Aug-18 07:58 36.664345 -113.597146 348 29063ft 495kts
10-Aug-18 07:59 36.796615 -113.631064 348 29061ft 488kts
10-Aug-18 08:00 36.928039 -113.622378 13 29062ft 477kts
10-Aug-18 08:01 37.052506 -113.576147 17 29062ft 469kts
10-Aug-18 08:02 37.173590 -113.526182 17 29064ft 464kts
10-Aug-18 08:03 37.295051 -113.474902 17 29064ft 460kts
10-Aug-18 08:04 37.415101 -113.423783 17 29106ft 455kts
10-Aug-18 08:05 37.529218 -113.375004 17 29182ft 451kts
10-Aug-18 08:06 37.645941 -113.323830 18 29218ft 448kts
10-Aug-18 08:07 37.763145 -113.272598 18 29218ft 446kts
10-Aug-18 08:08 37.880103 -113.221989 18 29218ft 445kts
10-Aug-18 08:09 37.996092 -113.171720 18 29211ft 444kts
10-Aug-18 08:10 38.111448 -113.121584 18 29188ft 444kts
10-Aug-18 08:11 38.227040 -113.071700 18 29175ft 443kts
10-Aug-18 08:12 38.343158 -113.020824 18 29174ft 443kts
10-Aug-18 08:13 38.458475 -112.969741 22 29180ft 437kts
10-Aug-18 08:14 38.569577 -112.908693 22 29174ft 437kts
10-Aug-18 08:15 38.680360 -112.847424 22 29182ft 436kts
10-Aug-18 08:16 38.791204 -112.785899 22 29181ft 435kts
10-Aug-18 08:17 38.901804 -112.724302 22 29175ft 434kts
10-Aug-18 08:18 39.012022 -112.662741 24 29163ft 433kts
10-Aug-18 08:19 39.121291 -112.601670 24 29164ft 433kts
10-Aug-18 08:20 39.226303 -112.543096 24 29164ft 433kts
10-Aug-18 08:21 39.317813 -112.491530 24 29163ft 433kts
10-Aug-18 08:22 39.446188 -112.418844 24 29163ft 432kts
10-Aug-18 08:23 39.554940 -112.357024 24 29162ft 432kts
10-Aug-18 08:24 39.646829 -112.303180 25 29165ft 432kts
10-Aug-18 08:25 39.756486 -112.239912 25 29165ft 433kts
10-Aug-18 08:26 39.884401 -112.166360 25 29161ft 433kts
10-Aug-18 08:27 39.976079 -112.113500 25 29159ft 433kts
10-Aug-18 08:28 40.086018 -112.049916 25 29163ft 433kts
10-Aug-18 08:29 40.193511 -111.988185 25 29166ft 435kts
10-Aug-18 08:30 40.302672 -111.924561 24 29165ft 439kts
10-Aug-18 08:31 40.411558 -111.860796 25 29163ft 443kts
10-Aug-18 08:32 40.518809 -111.791083 32 29163ft 442kts
10-Aug-18 08:33 40.624048 -111.708291 31 29119ft 446kts
10-Aug-18 08:34 40.730464 -111.624453 31 29108ft 448kts
10-Aug-18 08:35 40.837324 -111.539800 31 29162ft 448kts
10-Aug-18 08:36 40.943845 -111.455073 31 29261ft 448kts
10-Aug-18 08:37 41.050197 -111.370179 31 29342ft 448kts
10-Aug-18 08:38 41.151173 -111.288774 32 29371ft 449kts
10-Aug-18 08:39 41.258253 -111.202556 32 29367ft 452kts
10-Aug-18 08:40 41.365532 -111.115721 32 29367ft 454kts
10-Aug-18 08:41 41.473387 -111.028197 32 29366ft 456kts
10-Aug-18 08:42 41.581617 -110.940033 32 29366ft 457kts
10-Aug-18 08:43 41.688773 -110.852375 32 29378ft 457kts
10-Aug-18 08:44 41.796075 -110.764258 32 29392ft 458kts
10-Aug-18 08:45 41.904218 -110.675109 32 28944ft 465kts
10-Aug-18 08:46 42.015324 -110.583079 32 27255ft 477kts
10-Aug-18 08:47 42.126832 -110.490646 32 25595ft 487kts
10-Aug-18 08:48 42.242004 -110.395064 32 24395ft 496kts
10-Aug-18 08:49 42.358661 -110.295940 34 24403ft 504kts
10-Aug-18 08:50 42.478082 -110.194626 33 24404ft 510kts
10-Aug-18 08:51 42.597739 -110.093522 33 24061ft 516kts
10-Aug-18 08:52 42.715648 -109.993188 33 23035ft 487kts
10-Aug-18 08:53 42.826009 -109.898745 34 22029ft 466kts
10-Aug-18 08:54 42.933705 -109.806407 33 21008ft 450kts
10-Aug-18 08:55 43.047397 -109.752311 351 19984ft 446kts
10-Aug-18 08:56 43.154572 -109.822842 330 19019ft 438kts
10-Aug-18 08:57 43.260309 -109.903697 331 18018ft 435kts
10-Aug-18 08:58 43.365729 -109.983250 331 17020ft 433kts
10-Aug-18 08:59 43.469122 -110.061335 331 16046ft 407kts
10-Aug-18 09:00 43.562321 -110.132034 331 15453ft 370kts
10-Aug-18 09:01 43.650018 -110.198846 331 14344ft 354kts
10-Aug-18 09:02 43.734551 -110.263513 331 13236ft 342kts
10-Aug-18 09:03 43.817392 -110.326345 330 13990ft 341kts
10-Aug-18 09:04 43.862883 -110.422784 272 13369ft 286kts
10-Aug-18 09:05 43.865115 -110.517073 274 12049ft 220kts
10-Aug-18 09:06 43.868445 -110.587896 243 10895ft 155kts
10-Aug-18 09:07 43.837057 -110.623483 209 10989ft 158kts
10-Aug-18 09:08 43.798626 -110.648599 199 10221ft 143kts
10-Aug-18 09:09 43.761153 -110.663295 196 9320ft 142kts
10-Aug-18 09:10 43.723412 -110.681445 197 8830ft 149kts
10-Aug-18 09:11 43.682636 -110.701294 197 7791ft 148kts
10-Aug-18 09:12 43.644692 -110.719452 198 7111ft 145kts
10-Aug-18 09:13 43.608324 -110.737230 197 6438ft 95kts
10-Aug-18 09:14 43.602207 -110.740265 198 6426ft 16kts
10-Aug-18 09:15 43.599499 -110.740314 69 6421ft 0kts
10-Aug-18 09:16 43.602679 -110.738434 40 6428ft 4kts
10-Aug-18 09:17 43.602628 -110.737685 108 6429ft 0kts

Navigation Log

Ident Type
Flight plan parsing failed, navigation log unavailable